Carmen1 — HA3563 — position and weather

sailwx.info

Track history (hours):
 
Tides and Currents Weather Stations Pressure Air Temp Water Temp Dewpoint Dewpoint Depression Visibility Wind Speed Wind Dir Waves Ship Positions

Carmen1

Last reported at 2017-Dec-10 04:27 UTC. Time now 2017-Dec-13 22:24 UTC.
Position N 48°10' E 016°29'.

Length 114 m; draft 1.8 m.

Type: Passenger vessel. MMSI: 229736000.

Date/timePositionNaut miles runAvg speedWind from/ knotsBaromVisibWave heightAir tempDewpointWater temp
2017-Dec-10 04:27N 48°10' E 016°29'1 1.0
2017-Dec-10 03:53N 48°10' E 016°30'10 4.3
2017-Dec-10 01:35N 48°08' E 016°44'1 5.1
2017-Dec-10 01:27N 48°08' E 016°45'4 4.5
2017-Dec-10 00:39N 48°07' E 016°51'1 5.0
2017-Dec-10 00:30N 48°08' E 016°52'2 4.7
2017-Dec-10 00:00N 48°09' E 016°55'2 4.2
2017-Dec-09 23:30N 48°10' E 016°57'2 4.0
2017-Dec-09 23:00N 48°09' E 017°00'2 4.3
2017-Dec-09 22:30N 48°09' E 017°03'2 4.7
2017-Dec-09 22:00N 48°08' E 017°06'0 0.3
2017-Dec-09 21:30N 48°08' E 017°07'0 0.0
2017-Dec-09 21:00N 48°08' E 017°07'0 0.0
2017-Dec-09 20:30N 48°08' E 017°07'0 0.0
2017-Dec-09 20:00N 48°08' E 017°07'0 0.0
2017-Dec-09 19:30N 48°08' E 017°07'0 0.0
2017-Dec-09 19:00N 48°08' E 017°07'0 0.0
2017-Dec-09 18:30N 48°08' E 017°07'0 0.0
2017-Dec-09 18:00N 48°08' E 017°07'0 0.0
2017-Dec-09 17:30N 48°08' E 017°07'0 0.0
2017-Dec-09 17:00N 48°08' E 017°07'0 0.0
2017-Dec-09 16:30N 48°08' E 017°07'0 0.0
2017-Dec-09 16:00N 48°08' E 017°07'0 0.0
2017-Dec-09 15:30N 48°08' E 017°07'0 0.0
2017-Dec-09 15:00N 48°08' E 017°07'0 0.0
2017-Dec-09 14:30N 48°08' E 017°07'0 0.0
2017-Dec-09 14:00N 48°08' E 017°07'0 0.0
2017-Dec-09 13:30N 48°08' E 017°07'0 0.0
2017-Dec-09 13:00N 48°08' E 017°07'0 0.0
2017-Dec-09 12:30N 48°08' E 017°07'0 0.0
2017-Dec-09 12:00N 48°08' E 017°07'0 0.0
2017-Dec-09 11:30N 48°08' E 017°07'0 0.0
2017-Dec-09 11:00N 48°08' E 017°07'0 0.0
2017-Dec-09 10:30N 48°08' E 017°07'0 0.0
2017-Dec-09 10:00N 48°08' E 017°07'0 0.0
2017-Dec-09 09:30N 48°08' E 017°07'0 0.0
2017-Dec-09 09:00N 48°08' E 017°07'0 0.0
2017-Dec-09 08:30N 48°08' E 017°07'0 0.0
2017-Dec-09 08:00N 48°08' E 017°07'0 0.0
2017-Dec-09 07:30N 48°08' E 017°07'0 0.0
2017-Dec-09 07:00N 48°08' E 017°07'4 7.5
2017-Dec-09 06:30N 48°09' E 017°01'5 9.6
2017-Dec-09 06:00N 48°09' E 016°54'1711.3
2017-Dec-09 04:33N 48°10' E 016°29'0 6.2
2017-Dec-09 04:30N 48°10' E 016°29'0 0.7
2017-Dec-09 04:00N 48°11' E 016°29'4 0.1
2017-Dec-07 22:40N 48°13' E 016°25'0 0.0
2017-Dec-07 21:41N 48°13' E 016°25'0 0.0
2017-Dec-07 21:28N 48°13' E 016°25'0 0.0
2017-Dec-07 18:35N 48°13' E 016°25'0 0.0
2017-Dec-07 16:46N 48°13' E 016°25'0 0.0
2017-Dec-07 16:16N 48°13' E 016°25'0 0.0
2017-Dec-07 15:59N 48°13' E 016°25'0 0.0
2017-Dec-07 15:28N 48°13' E 016°25'0 0.0
2017-Dec-07 14:59N 48°13' E 016°25'0 0.0
2017-Dec-07 08:29N 48°13' E 016°25'0 0.0
2017-Dec-07 07:53N 48°13' E 016°25'0 0.0
2017-Dec-07 07:28N 48°13' E 016°25'0 0.0
2017-Dec-07 06:58N 48°13' E 016°25'0 0.0
2017-Dec-07 06:28N 48°13' E 016°25'0 0.0
2017-Dec-07 05:45N 48°13' E 016°25'0 0.0
2017-Dec-07 05:27N 48°13' E 016°25'0 0.0
2017-Dec-07 05:00N 48°13' E 016°25'0 0.0
2017-Dec-07 04:20N 48°13' E 016°25'0 0.0
2017-Dec-07 03:58N 48°13' E 016°25'0 0.0
2017-Dec-07 03:29N 48°13' E 016°25'0 0.0
2017-Dec-07 02:59N 48°13' E 016°25'  
Track history (hours):
 
Tides and Currents Weather Stations Pressure Air Temp Water Temp Dewpoint Dewpoint Depression Visibility Wind Speed Wind Dir Waves Ship Positions

Carmen1

Last reported at 2017-Dec-10 04:27 UTC. Time now 2017-Dec-13 22:24 UTC.
Position N 48°10' E 016°29'.

Length 114 m; draft 1.8 m.

Type: Passenger vessel. MMSI: 229736000.

Date/timePositionNaut miles runAvg speedWind from/ knotsBaromVisibWave heightAir tempDewpointWater temp
2017-Dec-10 04:27N 48°10' E 016°29'1 1.0
2017-Dec-10 03:53N 48°10' E 016°30'10 4.3
2017-Dec-10 01:35N 48°08' E 016°44'1 5.1
2017-Dec-10 01:27N 48°08' E 016°45'4 4.5
2017-Dec-10 00:39N 48°07' E 016°51'1 5.0
2017-Dec-10 00:30N 48°08' E 016°52'2 4.7
2017-Dec-10 00:00N 48°09' E 016°55'2 4.2
2017-Dec-09 23:30N 48°10' E 016°57'2 4.0
2017-Dec-09 23:00N 48°09' E 017°00'2 4.3
2017-Dec-09 22:30N 48°09' E 017°03'2 4.7
2017-Dec-09 22:00N 48°08' E 017°06'0 0.3
2017-Dec-09 21:30N 48°08' E 017°07'0 0.0
2017-Dec-09 21:00N 48°08' E 017°07'0 0.0
2017-Dec-09 20:30N 48°08' E 017°07'0 0.0
2017-Dec-09 20:00N 48°08' E 017°07'0 0.0
2017-Dec-09 19:30N 48°08' E 017°07'0 0.0
2017-Dec-09 19:00N 48°08' E 017°07'0 0.0
2017-Dec-09 18:30N 48°08' E 017°07'0 0.0
2017-Dec-09 18:00N 48°08' E 017°07'0 0.0
2017-Dec-09 17:30N 48°08' E 017°07'0 0.0
2017-Dec-09 17:00N 48°08' E 017°07'0 0.0
2017-Dec-09 16:30N 48°08' E 017°07'0 0.0
2017-Dec-09 16:00N 48°08' E 017°07'0 0.0
2017-Dec-09 15:30N 48°08' E 017°07'0 0.0
2017-Dec-09 15:00N 48°08' E 017°07'0 0.0
2017-Dec-09 14:30N 48°08' E 017°07'0 0.0
2017-Dec-09 14:00N 48°08' E 017°07'0 0.0
2017-Dec-09 13:30N 48°08' E 017°07'0 0.0
2017-Dec-09 13:00N 48°08' E 017°07'0 0.0
2017-Dec-09 12:30N 48°08' E 017°07'0 0.0
2017-Dec-09 12:00N 48°08' E 017°07'0 0.0
2017-Dec-09 11:30N 48°08' E 017°07'0 0.0
2017-Dec-09 11:00N 48°08' E 017°07'0 0.0
2017-Dec-09 10:30N 48°08' E 017°07'0 0.0
2017-Dec-09 10:00N 48°08' E 017°07'0 0.0
2017-Dec-09 09:30N 48°08' E 017°07'0 0.0
2017-Dec-09 09:00N 48°08' E 017°07'0 0.0
2017-Dec-09 08:30N 48°08' E 017°07'0 0.0
2017-Dec-09 08:00N 48°08' E 017°07'0 0.0
2017-Dec-09 07:30N 48°08' E 017°07'0 0.0
2017-Dec-09 07:00N 48°08' E 017°07'4 7.5
2017-Dec-09 06:30N 48°09' E 017°01'5 9.6
2017-Dec-09 06:00N 48°09' E 016°54'1711.3
2017-Dec-09 04:33N 48°10' E 016°29'0 6.2
2017-Dec-09 04:30N 48°10' E 016°29'0 0.7
2017-Dec-09 04:00N 48°11' E 016°29'4 0.1
2017-Dec-07 22:40N 48°13' E 016°25'0 0.0
2017-Dec-07 21:41N 48°13' E 016°25'0 0.0
2017-Dec-07 21:28N 48°13' E 016°25'0 0.0
2017-Dec-07 18:35N 48°13' E 016°25'0 0.0
2017-Dec-07 16:46N 48°13' E 016°25'0 0.0
2017-Dec-07 16:16N 48°13' E 016°25'0 0.0
2017-Dec-07 15:59N 48°13' E 016°25'0 0.0
2017-Dec-07 15:28N 48°13' E 016°25'0 0.0
2017-Dec-07 14:59N 48°13' E 016°25'0 0.0
2017-Dec-07 08:29N 48°13' E 016°25'0 0.0
2017-Dec-07 07:53N 48°13' E 016°25'0 0.0
2017-Dec-07 07:28N 48°13' E 016°25'0 0.0
2017-Dec-07 06:58N 48°13' E 016°25'0 0.0
2017-Dec-07 06:28N 48°13' E 016°25'0 0.0
2017-Dec-07 05:45N 48°13' E 016°25'0 0.0
2017-Dec-07 05:27N 48°13' E 016°25'0 0.0
2017-Dec-07 05:00N 48°13' E 016°25'0 0.0
2017-Dec-07 04:20N 48°13' E 016°25'0 0.0
2017-Dec-07 03:58N 48°13' E 016°25'0 0.0
2017-Dec-07 03:29N 48°13' E 016°25'0 0.0
2017-Dec-07 02:59N 48°13' E 016°25'  

Dump ship's entire track history